createdAt,value
2019-03-17T00:02:25.783Z,5.00
2019-03-17T00:04:52.151Z,5.10
2019-03-17T00:07:18.400Z,5.10
2019-03-17T00:09:45.917Z,5.20
2019-03-17T00:12:12.258Z,5.20
2019-03-17T00:14:38.988Z,5.30
2019-03-17T00:17:05.270Z,5.30
2019-03-17T00:19:31.517Z,5.30
2019-03-17T00:21:57.876Z,5.40
2019-03-17T00:24:24.114Z,5.50
2019-03-17T00:26:51.827Z,5.50
2019-03-17T00:29:18.450Z,5.50
2019-03-17T00:31:44.698Z,5.50
2019-03-17T00:34:11.336Z,5.60
2019-03-17T00:36:37.675Z,5.50
2019-03-17T00:39:04.952Z,5.50
2019-03-17T00:41:31.820Z,5.60
2019-03-17T00:43:58.173Z,5.60
2019-03-17T00:46:24.834Z,5.50
2019-03-17T00:48:52.251Z,5.50
2019-03-17T00:51:19.914Z,5.60
2019-03-17T00:53:46.495Z,5.60
2019-03-17T00:56:12.821Z,5.60
2019-03-17T00:58:39.164Z,5.60
2019-03-17T01:01:05.429Z,5.60
2019-03-17T01:03:33.362Z,5.60
2019-03-17T01:05:59.694Z,5.60
2019-03-17T01:08:26.333Z,5.50
2019-03-17T01:10:52.967Z,5.50
2019-03-17T01:13:19.352Z,5.50
2019-03-17T01:15:45.611Z,5.50
2019-03-17T01:18:11.859Z,5.60
2019-03-17T01:20:43.912Z,5.50
2019-03-17T01:23:10.243Z,5.60
2019-03-17T01:25:36.501Z,5.60
2019-03-17T01:28:02.862Z,5.60
2019-03-17T01:30:30.550Z,5.60
2019-03-17T01:32:56.860Z,5.70
2019-03-17T01:35:23.235Z,5.70
2019-03-17T01:37:49.604Z,5.80
2019-03-17T01:40:15.945Z,5.80
2019-03-17T01:42:42.206Z,5.80
2019-03-17T01:45:08.861Z,5.80
2019-03-17T01:47:35.249Z,5.80
2019-03-17T01:50:02.021Z,5.80
2019-03-17T01:52:28.398Z,5.90
2019-03-17T01:54:54.762Z,5.90
2019-03-17T01:57:21.468Z,6.00
2019-03-17T01:59:47.827Z,6.10
2019-03-17T02:02:14.070Z,6.10
2019-03-17T02:04:40.342Z,6.30
2019-03-17T02:07:07.014Z,6.30
2019-03-17T02:09:33.657Z,6.40
2019-03-17T02:12:00.028Z,6.50
2019-03-17T02:14:26.514Z,6.60
2019-03-17T02:16:52.803Z,6.60
2019-03-17T02:19:19.421Z,6.70
2019-03-17T02:21:46.100Z,6.80
2019-03-17T02:24:12.496Z,6.80
2019-03-17T02:26:38.883Z,6.80
2019-03-17T02:29:05.255Z,6.70
2019-03-17T02:31:31.569Z,6.70
2019-03-17T02:33:58.011Z,6.80
2019-03-17T02:36:24.374Z,6.80
2019-03-17T02:38:51.025Z,7.00
2019-03-17T02:41:17.287Z,7.10
2019-03-17T02:43:43.527Z,7.10
2019-03-17T02:46:10.067Z,7.20
2019-03-17T02:48:36.429Z,7.20
2019-03-17T02:51:03.023Z,7.10
2019-03-17T02:53:29.375Z,7.10
2019-03-17T02:55:56.007Z,7.10
2019-03-17T02:58:22.271Z,7.10
2019-03-17T03:00:48.543Z,7.00
2019-03-17T03:03:14.892Z,7.00
2019-03-17T03:05:53.919Z,6.90
2019-03-17T03:08:10.865Z,6.80
2019-03-17T03:10:37.177Z,6.70
2019-03-17T03:13:03.443Z,6.60
2019-03-17T03:15:29.773Z,6.50
2019-03-17T03:17:56.135Z,6.50
2019-03-17T03:20:22.469Z,6.40
2019-03-17T03:22:48.714Z,6.30
2019-03-17T03:25:14.962Z,6.20
2019-03-17T03:27:41.647Z,6.20
2019-03-17T03:30:11.321Z,6.10
2019-03-17T03:32:37.649Z,6.00
2019-03-17T03:35:06.633Z,5.90
2019-03-17T03:37:32.985Z,5.90
2019-03-17T03:39:59.587Z,5.90
2019-03-17T03:42:25.938Z,5.80
2019-03-17T03:44:52.450Z,5.80
2019-03-17T03:47:19.978Z,5.70
2019-03-17T03:49:46.223Z,5.70
2019-03-17T03:52:12.865Z,5.60
2019-03-17T03:54:39.202Z,5.60
2019-03-17T03:57:06.039Z,5.50
2019-03-17T03:59:32.707Z,5.50
2019-03-17T04:01:58.940Z,5.50
2019-03-17T04:04:25.319Z,5.40
2019-03-17T04:06:51.646Z,5.40
2019-03-17T04:09:17.898Z,5.30
2019-03-17T04:11:44.130Z,5.30
2019-03-17T04:14:10.814Z,5.20
2019-03-17T04:16:37.051Z,5.20
2019-03-17T04:19:03.542Z,5.10
2019-03-17T04:21:30.094Z,5.10
2019-03-17T04:23:56.344Z,5.10
2019-03-17T04:26:22.587Z,5.10
2019-03-17T04:28:48.840Z,5.00
2019-03-17T04:31:16.222Z,5.00
2019-03-17T04:33:42.903Z,4.90
2019-03-17T04:36:09.283Z,4.90
2019-03-17T04:38:35.602Z,4.80
2019-03-17T04:41:02.137Z,4.80
2019-03-17T04:43:28.417Z,4.80
2019-03-17T04:45:54.957Z,4.80
2019-03-17T04:48:21.225Z,4.80
2019-03-17T04:50:47.471Z,4.80
2019-03-17T04:53:13.765Z,4.80
2019-03-17T04:55:40.202Z,4.80
2019-03-17T04:58:06.833Z,4.80
2019-03-17T05:00:33.342Z,4.80
2019-03-17T05:02:59.713Z,4.80
2019-03-17T05:05:26.321Z,4.90
2019-03-17T05:07:52.591Z,4.90
2019-03-17T05:10:18.857Z,4.90
2019-03-17T05:12:45.194Z,4.90
2019-03-17T05:15:11.599Z,4.90
2019-03-17T05:17:38.192Z,4.90
2019-03-17T05:20:07.187Z,4.90
2019-03-17T05:22:34.038Z,4.90
2019-03-17T05:25:00.571Z,4.90
2019-03-17T05:27:26.809Z,4.90
2019-03-17T05:29:53.061Z,4.80
2019-03-17T05:32:19.560Z,4.70
2019-03-17T05:34:45.943Z,4.70
2019-03-17T05:37:13.291Z,4.60
2019-03-17T05:39:39.539Z,4.60
2019-03-17T05:42:06.020Z,4.50
2019-03-17T05:44:32.652Z,4.40
2019-03-17T05:46:58.993Z,4.30
2019-03-17T05:49:25.549Z,4.30
2019-03-17T05:51:51.834Z,4.30
2019-03-17T05:54:19.194Z,4.30
2019-03-17T05:56:45.446Z,4.20
2019-03-17T05:59:11.885Z,4.30
2019-03-17T06:01:38.141Z,4.30
2019-03-17T06:04:04.463Z,4.30
2019-03-17T06:06:30.746Z,4.30
2019-03-17T06:08:57.338Z,4.30
2019-03-17T06:11:23.593Z,4.30
2019-03-17T06:13:51.252Z,4.30
2019-03-17T06:16:17.790Z,4.30
2019-03-17T06:18:44.030Z,4.30
2019-03-17T06:21:10.474Z,4.30
2019-03-17T06:23:36.814Z,4.40
2019-03-17T06:26:03.282Z,4.40
2019-03-17T06:28:29.842Z,4.40
2019-03-17T06:30:56.237Z,4.40
2019-03-17T06:33:22.487Z,4.40
2019-03-17T06:35:48.732Z,4.50
2019-03-17T06:38:15.278Z,4.50
2019-03-17T06:40:42.539Z,4.60
2019-03-17T06:43:09.166Z,4.70
2019-03-17T06:45:35.769Z,4.80
2019-03-17T06:48:02.029Z,4.90
2019-03-17T06:50:28.517Z,5.00
2019-03-17T06:52:55.094Z,5.00
2019-03-17T06:55:21.609Z,5.10
2019-03-17T06:57:47.859Z,5.20
2019-03-17T07:00:14.903Z,5.40
2019-03-17T07:02:41.141Z,5.50
2019-03-17T07:05:08.287Z,5.70
2019-03-17T07:07:44.099Z,5.80
2019-03-17T07:10:04.575Z,6.00
2019-03-17T07:12:30.951Z,6.30
2019-03-17T07:14:57.529Z,6.60
2019-03-17T07:17:24.067Z,6.90
2019-03-17T07:19:50.401Z,7.20
2019-03-17T07:22:16.660Z,7.50
2019-03-17T07:24:43.003Z,7.80
2019-03-17T07:27:09.533Z,8.20
2019-03-17T07:29:36.177Z,8.50
2019-03-17T07:32:02.525Z,8.80
2019-03-17T07:34:29.106Z,9.20
2019-03-17T07:36:55.650Z,9.50
2019-03-17T07:39:21.946Z,10.00
2019-03-17T07:41:48.335Z,10.50
2019-03-17T07:44:14.834Z,10.90
2019-03-17T07:46:41.453Z,11.10
2019-03-17T07:49:07.680Z,11.40
2019-03-17T07:51:34.318Z,11.70
2019-03-17T07:54:00.927Z,12.00
2019-03-17T07:56:27.453Z,12.40
2019-03-17T07:58:53.694Z,12.90
2019-03-17T08:01:20.004Z,13.50
2019-03-17T08:03:46.346Z,14.10
2019-03-17T08:06:15.998Z,14.70
2019-03-17T08:08:42.653Z,15.20
2019-03-17T08:11:09.253Z,15.60
2019-03-17T08:13:35.642Z,16.10
2019-03-17T08:16:01.909Z,16.60
2019-03-17T08:18:28.581Z,16.90
2019-03-17T08:20:54.926Z,17.20
2019-03-17T08:23:21.205Z,17.50
2019-03-17T08:25:47.547Z,17.80
2019-03-17T08:28:14.073Z,18.10
2019-03-17T08:30:52.634Z,18.30
2019-03-17T08:33:09.104Z,18.40
2019-03-17T08:35:35.586Z,18.40
2019-03-17T08:38:01.834Z,18.50
2019-03-17T08:40:29.065Z,18.50
2019-03-17T08:42:55.583Z,18.60
2019-03-17T08:45:22.140Z,18.60
2019-03-17T08:47:57.953Z,18.50
2019-03-17T08:50:16.855Z,18.50
2019-03-17T08:52:43.220Z,18.70
2019-03-17T08:55:09.953Z,18.80
2019-03-17T08:57:36.595Z,18.80
2019-03-17T09:00:15.478Z,18.70
2019-03-17T09:02:42.089Z,18.90
2019-03-17T09:05:08.339Z,19.20
2019-03-17T09:07:34.967Z,19.30
2019-03-17T09:10:01.510Z,19.50
2019-03-17T09:12:28.126Z,19.60
2019-03-17T09:14:54.466Z,19.60
2019-03-17T09:17:20.990Z,19.60
2019-03-17T09:19:47.516Z,19.70
2019-03-17T09:22:14.117Z,19.60
2019-03-17T09:24:40.374Z,19.60
2019-03-17T09:27:06.871Z,19.50
2019-03-17T09:29:33.230Z,19.60
2019-03-17T09:31:59.848Z,19.60
2019-03-17T09:34:27.096Z,19.50
2019-03-17T09:36:53.678Z,19.60
2019-03-17T09:39:21.463Z,19.90
2019-03-17T09:41:47.795Z,20.00
2019-03-17T09:44:14.035Z,20.20
2019-03-17T09:46:40.549Z,20.10
2019-03-17T09:49:07.122Z,19.70
2019-03-17T09:51:33.360Z,19.60
2019-03-17T09:53:59.718Z,19.70
2019-03-17T09:56:26.043Z,19.80
2019-03-17T09:58:52.383Z,19.90
2019-03-17T10:01:19.033Z,19.90
2019-03-17T10:03:45.406Z,19.80
2019-03-17T10:06:11.765Z,19.80
2019-03-17T10:08:38.001Z,20.00
2019-03-17T10:11:04.541Z,20.00
2019-03-17T10:13:31.285Z,20.20
2019-03-17T10:15:58.836Z,20.20
2019-03-17T10:18:25.089Z,20.10
2019-03-17T10:20:51.371Z,20.00
2019-03-17T10:23:17.739Z,20.10
2019-03-17T10:25:44.235Z,20.30
2019-03-17T10:28:10.708Z,20.40
2019-03-17T10:30:37.342Z,20.50
2019-03-17T10:33:03.613Z,20.40
2019-03-17T10:35:30.241Z,20.60
2019-03-17T10:37:56.488Z,20.80
2019-03-17T10:40:22.740Z,20.60
2019-03-17T10:42:49.387Z,20.70
2019-03-17T10:45:15.826Z,20.80
2019-03-17T10:47:43.082Z,21.30
2019-03-17T10:50:14.710Z,21.40
2019-03-17T10:52:41.369Z,20.80
2019-03-17T10:55:08.621Z,20.60
2019-03-17T10:57:34.971Z,20.60
2019-03-17T11:00:01.442Z,20.80
2019-03-17T11:02:27.878Z,21.00
2019-03-17T11:04:54.140Z,21.00
2019-03-17T11:07:20.395Z,20.80
2019-03-17T11:09:46.662Z,20.80
2019-03-17T11:12:12.906Z,20.70
2019-03-17T11:14:39.172Z,20.80
2019-03-17T11:17:05.529Z,21.00
2019-03-17T11:19:31.870Z,21.10
2019-03-17T11:21:58.130Z,21.40
2019-03-17T11:24:24.397Z,21.20
2019-03-17T11:26:50.777Z,20.80
2019-03-17T11:29:17.405Z,20.80
2019-03-17T11:31:44.038Z,21.00
2019-03-17T11:34:10.370Z,21.20
2019-03-17T11:36:37.058Z,21.10
2019-03-17T11:39:05.429Z,21.10
2019-03-17T11:41:31.782Z,21.30
2019-03-17T11:43:58.016Z,20.80
2019-03-17T11:46:24.263Z,20.20
2019-03-17T11:48:50.519Z,19.80
2019-03-17T11:51:17.042Z,19.20
2019-03-17T11:53:43.478Z,18.70
2019-03-17T11:56:09.850Z,18.30
2019-03-17T11:58:36.085Z,18.00
2019-03-17T12:01:02.711Z,17.70
2019-03-17T12:03:29.043Z,17.40
2019-03-17T12:05:55.667Z,17.30
2019-03-17T12:08:22.176Z,17.50
2019-03-17T12:10:48.442Z,18.10
2019-03-17T12:13:14.692Z,18.90
2019-03-17T12:15:41.033Z,19.30
2019-03-17T12:18:07.265Z,19.30
2019-03-17T12:20:33.602Z,19.40
2019-03-17T12:22:59.885Z,19.20
2019-03-17T12:25:26.532Z,18.90
2019-03-17T12:27:52.938Z,18.80
2019-03-17T12:30:24.473Z,19.10
2019-03-17T12:32:52.219Z,19.40
2019-03-17T12:35:18.760Z,19.40
2019-03-17T12:37:45.352Z,19.40
2019-03-17T12:40:11.984Z,19.20
2019-03-17T12:42:39.558Z,19.00
2019-03-17T12:45:09.002Z,18.60
2019-03-17T12:47:37.393Z,18.30
2019-03-17T12:50:09.369Z,18.20
2019-03-17T12:52:35.602Z,17.80
2019-03-17T12:55:02.393Z,17.50
2019-03-17T12:57:28.709Z,17.30
2019-03-17T12:59:55.089Z,17.10
2019-03-17T13:02:21.309Z,16.80
2019-03-17T13:04:47.588Z,16.60
2019-03-17T13:07:13.904Z,16.40
2019-03-17T13:09:40.426Z,16.10
2019-03-17T13:12:06.983Z,15.90
2019-03-17T13:14:33.244Z,15.70
2019-03-17T13:17:00.073Z,15.50
2019-03-17T13:19:26.622Z,15.40
2019-03-17T13:21:52.896Z,15.20
2019-03-17T13:24:20.047Z,15.00
2019-03-17T13:26:46.610Z,14.80
2019-03-17T13:29:13.360Z,14.70
2019-03-17T13:31:40.012Z,14.50
2019-03-17T13:34:06.328Z,14.40
2019-03-17T13:36:32.592Z,14.30
2019-03-17T13:38:58.833Z,14.20
2019-03-17T13:41:25.284Z,13.90
2019-03-17T13:43:51.508Z,13.80
2019-03-17T13:46:17.858Z,13.70
2019-03-17T13:48:44.074Z,13.50
2019-03-17T13:51:10.337Z,13.40
2019-03-17T13:53:36.929Z,13.10
2019-03-17T13:56:03.288Z,12.90
2019-03-17T13:58:29.537Z,12.70
2019-03-17T14:00:55.792Z,12.50
2019-03-17T14:03:22.057Z,12.30
2019-03-17T14:05:48.664Z,12.20
2019-03-17T14:08:15.282Z,12.00
2019-03-17T14:10:41.748Z,11.80
2019-03-17T14:13:08.113Z,11.70
2019-03-17T14:15:34.351Z,11.50
2019-03-17T14:18:00.602Z,11.40
2019-03-17T14:20:27.397Z,11.30
2019-03-17T14:22:53.731Z,11.10
2019-03-17T14:25:23.296Z,11.00
2019-03-17T14:27:49.677Z,10.90
2019-03-17T14:30:16.117Z,10.80
2019-03-17T14:32:42.575Z,10.70
2019-03-17T14:35:09.158Z,10.40
2019-03-17T14:37:35.499Z,10.10
2019-03-17T14:40:04.710Z,9.80
2019-03-17T14:42:31.042Z,9.60
2019-03-17T14:44:57.292Z,9.40
2019-03-17T14:47:23.545Z,9.10
2019-03-17T14:49:49.808Z,8.60
2019-03-17T14:52:16.151Z,8.20
2019-03-17T14:54:42.602Z,7.70
2019-03-17T14:57:09.179Z,7.40
2019-03-17T14:59:35.763Z,7.20
2019-03-17T15:02:02.011Z,7.00
2019-03-17T15:04:28.297Z,6.90
2019-03-17T15:06:55.937Z,6.80
2019-03-17T15:09:22.181Z,6.60
2019-03-17T15:11:48.513Z,6.50
2019-03-17T15:14:14.779Z,6.40
2019-03-17T15:16:41.006Z,6.30
2019-03-17T15:19:07.260Z,6.20
2019-03-17T15:21:33.508Z,6.10
2019-03-17T15:23:59.780Z,6.10
2019-03-17T15:26:26.391Z,6.00
2019-03-17T15:28:52.724Z,5.90
2019-03-17T15:31:19.066Z,5.90
2019-03-17T15:33:45.372Z,5.80
2019-03-17T15:36:11.712Z,5.70
2019-03-17T15:38:38.377Z,5.60
2019-03-17T15:41:04.833Z,5.60
2019-03-17T15:43:31.195Z,5.50
2019-03-17T15:45:57.526Z,5.40
2019-03-17T15:48:23.798Z,5.30
2019-03-17T15:50:50.103Z,5.20
2019-03-17T15:53:16.370Z,5.20
2019-03-17T15:55:42.885Z,5.10
2019-03-17T15:58:09.150Z,4.90
2019-03-17T16:00:35.662Z,4.90
2019-03-17T16:03:01.926Z,4.80
2019-03-17T16:05:28.578Z,4.80
2019-03-17T16:07:54.857Z,4.70
2019-03-17T16:10:26.536Z,4.70
2019-03-17T16:12:53.391Z,4.60
2019-03-17T16:15:20.464Z,4.60
2019-03-17T16:17:47.167Z,4.60
2019-03-17T16:20:16.649Z,4.60
2019-03-17T16:22:42.899Z,4.60
2019-03-17T16:25:12.450Z,4.60
2019-03-17T16:27:38.977Z,4.50
2019-03-17T16:30:22.139Z,4.50
2019-03-17T16:32:48.373Z,4.50
2019-03-17T16:35:14.863Z,4.40
2019-03-17T16:37:45.221Z,4.40
2019-03-17T16:40:25.761Z,4.30
2019-03-17T16:42:53.876Z,4.30
2019-03-17T16:45:20.367Z,4.30
2019-03-17T16:47:47.092Z,4.30
2019-03-17T16:50:17.718Z,4.20
2019-03-17T16:52:44.001Z,4.20
2019-03-17T16:55:11.556Z,4.20
2019-03-17T16:57:38.207Z,4.20
2019-03-17T17:00:11.158Z,4.20
2019-03-17T17:02:37.535Z,4.20
2019-03-17T17:05:06.387Z,4.20
2019-03-17T17:07:33.006Z,4.20
2019-03-17T17:10:00.621Z,4.20
2019-03-17T17:12:26.954Z,4.20
2019-03-17T17:14:53.498Z,4.20
2019-03-17T17:17:19.739Z,4.20
2019-03-17T17:19:46.284Z,4.20
2019-03-17T17:22:12.632Z,4.20
2019-03-17T17:24:38.914Z,4.20
2019-03-17T17:27:05.194Z,4.20
2019-03-17T17:29:31.637Z,4.20
2019-03-17T17:31:58.237Z,4.20
2019-03-17T17:34:24.817Z,4.20
2019-03-17T17:36:51.249Z,4.20
2019-03-17T17:39:17.513Z,4.10
2019-03-17T17:41:44.779Z,4.10
2019-03-17T17:44:12.100Z,4.20
2019-03-17T17:46:38.382Z,4.10
2019-03-17T17:49:05.665Z,4.10
2019-03-17T17:51:32.113Z,4.10
2019-03-17T17:53:59.726Z,4.10
2019-03-17T17:56:26.090Z,4.10
2019-03-17T17:58:52.348Z,4.10
2019-03-17T18:01:18.793Z,4.00
2019-03-17T18:03:51.478Z,4.10
2019-03-17T18:06:13.830Z,4.00
2019-03-17T18:08:40.376Z,4.00
2019-03-17T18:11:06.773Z,4.00
2019-03-17T18:13:33.126Z,3.90
2019-03-17T18:16:00.476Z,3.90
2019-03-17T18:18:26.726Z,3.90
2019-03-17T18:20:54.084Z,3.90
2019-03-17T18:23:21.533Z,3.90
2019-03-17T18:25:47.900Z,3.90
2019-03-17T18:28:14.127Z,3.90
2019-03-17T18:30:40.485Z,3.80
2019-03-17T18:33:06.832Z,3.80
2019-03-17T18:35:33.594Z,3.80
2019-03-17T18:37:59.905Z,3.80
2019-03-17T18:40:26.253Z,3.70
2019-03-17T18:42:52.503Z,3.70
2019-03-17T18:45:28.971Z,3.70
2019-03-17T18:47:57.456Z,3.70
2019-03-17T18:50:24.505Z,3.60
2019-03-17T18:52:51.015Z,3.60
2019-03-17T18:55:17.532Z,3.60
2019-03-17T18:57:44.517Z,3.60
2019-03-17T19:00:15.877Z,3.50
2019-03-17T19:02:42.292Z,3.60
2019-03-17T19:05:11.060Z,3.50
2019-03-17T19:07:38.433Z,3.50
2019-03-17T19:10:07.474Z,3.50
2019-03-17T19:12:45.000Z,3.50
2019-03-17T19:15:02.388Z,3.50
2019-03-17T19:17:28.917Z,3.50
2019-03-17T19:19:55.178Z,3.60
2019-03-17T19:22:21.790Z,3.60
2019-03-17T19:24:48.042Z,3.60
2019-03-17T19:27:14.730Z,3.60
2019-03-17T19:29:40.982Z,3.60
2019-03-17T19:32:07.340Z,3.70
2019-03-17T19:34:33.695Z,3.70
2019-03-17T19:37:00.053Z,3.60
2019-03-17T19:39:26.463Z,3.70
2019-03-17T19:41:54.169Z,3.70
2019-03-17T19:44:20.530Z,3.70
2019-03-17T19:46:47.143Z,3.60
2019-03-17T19:49:13.396Z,3.60
2019-03-17T19:51:39.923Z,3.60
2019-03-17T19:54:06.467Z,3.60
2019-03-17T19:56:32.748Z,3.70
2019-03-17T19:58:59.166Z,3.60
2019-03-17T20:01:26.490Z,3.60
2019-03-17T20:03:58.663Z,3.60
2019-03-17T20:06:25.007Z,3.60
2019-03-17T20:08:51.258Z,3.60
2019-03-17T20:11:17.773Z,3.60
2019-03-17T20:13:44.098Z,3.60
2019-03-17T20:16:10.374Z,3.60
2019-03-17T20:18:36.812Z,3.50
2019-03-17T20:21:03.474Z,3.50
2019-03-17T20:23:29.795Z,3.50
2019-03-17T20:25:56.552Z,3.50
2019-03-17T20:28:22.831Z,3.50
2019-03-17T20:30:49.263Z,3.50
2019-03-17T20:33:15.633Z,3.40
2019-03-17T20:35:41.979Z,3.40
2019-03-17T20:38:08.344Z,3.40
2019-03-17T20:40:34.903Z,3.40
2019-03-17T20:43:01.258Z,3.40
2019-03-17T20:45:28.621Z,3.40
2019-03-17T20:47:55.001Z,3.40
2019-03-17T20:50:21.322Z,3.30
2019-03-17T20:52:47.617Z,3.30
2019-03-17T20:55:14.145Z,3.30
2019-03-17T20:57:40.537Z,3.30
2019-03-17T21:00:14.781Z,3.30
2019-03-17T21:02:41.128Z,3.30
2019-03-17T21:05:09.576Z,3.20
2019-03-17T21:07:35.960Z,3.20
2019-03-17T21:10:04.720Z,3.20
2019-03-17T21:12:31.237Z,3.20
2019-03-17T21:14:57.614Z,3.20
2019-03-17T21:17:23.921Z,3.20
2019-03-17T21:19:50.198Z,3.20
2019-03-17T21:22:16.449Z,3.20
2019-03-17T21:24:42.799Z,3.20
2019-03-17T21:27:09.058Z,3.10
2019-03-17T21:29:35.339Z,3.10
2019-03-17T21:32:01.969Z,3.00
2019-03-17T21:34:28.413Z,3.00
2019-03-17T21:36:54.762Z,3.00
2019-03-17T21:39:22.533Z,3.00
2019-03-17T21:41:49.191Z,3.00
2019-03-17T21:44:15.909Z,3.00
2019-03-17T21:46:42.153Z,3.00
2019-03-17T21:49:08.454Z,2.90
2019-03-17T21:51:36.151Z,2.90
2019-03-17T21:54:02.525Z,2.90
2019-03-17T21:56:29.131Z,3.00
2019-03-17T21:58:56.705Z,3.00
2019-03-17T22:01:23.117Z,3.00
2019-03-17T22:03:49.453Z,2.90
2019-03-17T22:06:15.709Z,3.00
2019-03-17T22:08:42.011Z,2.90
2019-03-17T22:11:08.325Z,2.90
2019-03-17T22:13:34.602Z,2.90
2019-03-17T22:16:00.970Z,2.90
2019-03-17T22:18:27.226Z,2.90
2019-03-17T22:20:53.622Z,2.90
2019-03-17T22:23:19.969Z,2.90
2019-03-17T22:25:46.662Z,2.90
2019-03-17T22:28:13.186Z,2.90
2019-03-17T22:30:39.662Z,2.80
2019-03-17T22:33:06.054Z,2.80
2019-03-17T22:35:32.306Z,2.80
2019-03-17T22:37:58.696Z,2.80
2019-03-17T22:40:25.024Z,2.70
2019-03-17T22:42:51.551Z,2.70
2019-03-17T22:45:18.003Z,2.60
2019-03-17T22:47:44.242Z,2.60
2019-03-17T22:50:15.893Z,2.60
2019-03-17T22:52:42.234Z,2.50
2019-03-17T22:55:10.404Z,2.50
2019-03-17T22:57:37.045Z,2.50
2019-03-17T23:00:10.215Z,2.50
2019-03-17T23:02:38.706Z,2.40
2019-03-17T23:05:06.872Z,2.30
2019-03-17T23:07:33.382Z,2.30
2019-03-17T23:09:59.909Z,2.30
2019-03-17T23:12:26.503Z,2.30
2019-03-17T23:14:52.871Z,2.40
2019-03-17T23:17:19.449Z,2.40
2019-03-17T23:19:45.998Z,2.40
2019-03-17T23:22:12.341Z,2.40
2019-03-17T23:24:38.585Z,2.30
2019-03-17T23:27:04.863Z,2.30
2019-03-17T23:29:31.413Z,2.20
2019-03-17T23:31:58.078Z,2.20
2019-03-17T23:34:24.340Z,2.20
2019-03-17T23:36:50.935Z,2.20
2019-03-17T23:39:17.174Z,2.20
2019-03-17T23:41:43.531Z,2.20
2019-03-17T23:44:09.766Z,2.20
2019-03-17T23:46:38.195Z,2.20
2019-03-17T23:49:04.531Z,2.20
2019-03-17T23:51:30.878Z,2.20
2019-03-17T23:53:57.349Z,2.20
2019-03-17T23:56:24.016Z,2.20
2019-03-17T23:58:50.302Z,2.10
